Weather at Garfield County Regional Airport

Public forecast

Using degrees Fahrenheit for public forecast. Weather courtesy of forecast.io.

Current aviation weather report (METAR) for Garfield County Regional Airport

2024/06/22 08:53 (retrieved 31 minutes ago)

KRIL 220853Z AUTO 16003KT 10SM CLR 11/09 A3025 RMK AO2 SLP198 T01110094 53003

Aviation forecast (TAF) for Garfield County Regional Airport

2024/06/22 06:22 (retrieved 3 hours ago)

TAF KRIL 220520Z 2206/2306 13005KT P6SM FEW080 FM221400 00000KT P6SM FEW090 FEW250 FM221800 30005KT P6SM FEW080 FEW250 FM222000 29008KT P6SM FEW090 FEW150 FM230200 16006KT P6SM FEW090 FEW250